createdAt,value
2023-04-15T00:01:33.980Z,6.33
2023-04-15T00:04:03.071Z,6.32
2023-04-15T00:06:31.108Z,6.30
2023-04-15T00:08:59.083Z,6.30
2023-04-15T00:11:26.893Z,6.29
2023-04-15T00:13:54.503Z,6.29
2023-04-15T00:16:22.265Z,6.29
2023-04-15T00:18:49.906Z,6.30
2023-04-15T00:21:19.014Z,6.29
2023-04-15T00:23:49.788Z,6.27
2023-04-15T00:26:17.463Z,6.27
2023-04-15T00:28:45.710Z,6.27
2023-04-15T00:31:13.367Z,6.26
2023-04-15T00:33:41.253Z,6.25
2023-04-15T00:36:09.991Z,6.25
2023-04-15T00:38:40.263Z,6.27
2023-04-15T00:41:08.014Z,6.25
2023-04-15T00:43:35.740Z,6.27
2023-04-15T00:46:05.699Z,6.27
2023-04-15T00:48:33.496Z,6.25
2023-04-15T00:51:01.161Z,6.24
2023-04-15T00:53:28.792Z,6.23
2023-04-15T00:55:57.756Z,6.23
2023-04-15T00:58:26.338Z,6.22
2023-04-15T01:00:54.446Z,6.23
2023-04-15T01:03:22.783Z,6.24
2023-04-15T01:05:51.078Z,6.24
2023-04-15T01:08:18.770Z,6.25
2023-04-15T01:10:46.586Z,6.23
2023-04-15T01:13:15.573Z,6.24
2023-04-15T01:15:43.633Z,6.24
2023-04-15T01:18:11.260Z,6.22
2023-04-15T01:20:39.614Z,6.21
2023-04-15T01:23:07.471Z,6.21
2023-04-15T01:25:37.098Z,6.20
2023-04-15T01:28:05.125Z,6.19
2023-04-15T01:30:35.678Z,6.17
2023-04-15T01:33:03.706Z,6.19
2023-04-15T01:35:32.162Z,6.18
2023-04-15T01:38:06.131Z,6.17
2023-04-15T01:40:33.885Z,6.18
2023-04-15T01:43:03.832Z,6.19
2023-04-15T01:45:31.721Z,6.17
2023-04-15T01:47:59.353Z,6.15
2023-04-15T01:50:27.185Z,6.15
2023-04-15T01:52:56.370Z,6.15
2023-04-15T01:55:25.494Z,6.13
2023-04-15T01:57:53.100Z,6.13
2023-04-15T02:00:23.475Z,6.13
2023-04-15T02:02:53.140Z,6.13
2023-04-15T02:05:20.868Z,6.14
2023-04-15T02:07:49.400Z,6.14
2023-04-15T02:10:17.235Z,6.12
2023-04-15T02:12:44.889Z,6.14
2023-04-15T02:15:12.529Z,6.13
2023-04-15T02:17:45.801Z,6.10
2023-04-15T02:20:15.934Z,6.10
2023-04-15T02:22:43.564Z,6.10
2023-04-15T02:25:11.676Z,6.08
2023-04-15T02:27:39.285Z,6.10
2023-04-15T02:30:08.417Z,6.05
2023-04-15T02:32:38.015Z,6.08
2023-04-15T02:35:08.814Z,6.08
2023-04-15T02:37:41.663Z,6.08
2023-04-15T02:40:12.168Z,6.07
2023-04-15T02:42:40.254Z,6.08
2023-04-15T02:45:12.065Z,6.08
2023-04-15T02:47:41.552Z,6.09
2023-04-15T02:50:13.190Z,6.09
2023-04-15T02:52:42.836Z,6.08
2023-04-15T02:55:11.133Z,6.10
2023-04-15T02:57:39.234Z,6.10
2023-04-15T03:00:11.651Z,6.09
2023-04-15T03:02:43.147Z,6.10
2023-04-15T03:05:14.870Z,6.10
2023-04-15T03:07:48.824Z,6.11
2023-04-15T03:10:16.529Z,6.12
2023-04-15T03:12:44.199Z,6.12
2023-04-15T03:15:16.761Z,6.12
2023-04-15T03:17:49.360Z,6.12
2023-04-15T03:20:18.745Z,6.14
2023-04-15T03:22:46.457Z,6.16
2023-04-15T03:25:14.087Z,6.19
2023-04-15T03:27:42.774Z,6.18
2023-04-15T03:30:11.723Z,6.21
2023-04-15T03:32:40.294Z,6.20
2023-04-15T03:35:09.644Z,6.22
2023-04-15T03:37:38.573Z,6.22
2023-04-15T03:40:07.339Z,6.21
2023-04-15T03:42:34.927Z,6.22
2023-04-15T03:45:02.570Z,6.22
2023-04-15T03:47:30.351Z,6.23
2023-04-15T03:49:57.983Z,6.24
2023-04-15T03:52:25.664Z,6.23
2023-04-15T03:54:54.620Z,6.24
2023-04-15T03:57:22.202Z,6.25
2023-04-15T03:59:49.819Z,6.26
2023-04-15T04:02:17.517Z,6.27
2023-04-15T04:04:45.264Z,6.26
2023-04-15T04:07:16.848Z,6.28
2023-04-15T04:09:45.704Z,6.29
2023-04-15T04:12:16.141Z,6.28
2023-04-15T04:14:43.759Z,6.28
2023-04-15T04:17:11.704Z,6.29
2023-04-15T04:19:39.377Z,6.28
2023-04-15T04:22:06.988Z,6.30
2023-04-15T04:24:34.662Z,6.30
2023-04-15T04:27:02.269Z,6.30
2023-04-15T04:29:31.316Z,6.31
2023-04-15T04:31:58.914Z,6.33
2023-04-15T04:34:26.657Z,6.31
2023-04-15T04:36:54.284Z,6.32
2023-04-15T04:39:21.874Z,6.33
2023-04-15T04:41:49.476Z,6.34
2023-04-15T04:44:17.119Z,6.34
2023-04-15T04:46:46.121Z,6.34
2023-04-15T04:49:13.737Z,6.36
2023-04-15T04:51:41.346Z,6.35
2023-04-15T04:54:09.624Z,6.36
2023-04-15T04:56:39.229Z,6.36
2023-04-15T04:59:07.091Z,6.39
2023-04-15T05:01:34.778Z,6.39
2023-04-15T05:04:05.168Z,6.40
2023-04-15T05:06:33.174Z,6.40
2023-04-15T05:09:01.298Z,6.41
2023-04-15T05:11:29.267Z,6.42
2023-04-15T05:13:58.096Z,6.41
2023-04-15T05:16:25.919Z,6.41
2023-04-15T05:18:53.532Z,6.44
2023-04-15T05:21:23.126Z,6.44
2023-04-15T05:23:50.963Z,6.44
2023-04-15T05:26:18.751Z,6.48
2023-04-15T05:28:46.373Z,6.47
2023-04-15T05:31:14.375Z,6.48
2023-04-15T05:33:42.207Z,6.48
2023-04-15T05:36:10.152Z,6.49
2023-04-15T05:38:39.113Z,6.51
2023-04-15T05:41:06.856Z,6.50
2023-04-15T05:43:34.609Z,6.52
2023-04-15T05:46:02.373Z,6.54
2023-04-15T05:48:30.010Z,6.54
2023-04-15T05:50:57.669Z,6.55
2023-04-15T05:53:25.466Z,6.59
2023-04-15T05:55:54.435Z,6.57
2023-04-15T05:58:22.057Z,6.60
2023-04-15T06:00:49.945Z,6.61
2023-04-15T06:03:18.075Z,6.61
2023-04-15T06:05:45.720Z,6.62
2023-04-15T06:08:13.502Z,6.63
2023-04-15T06:10:41.559Z,6.64
2023-04-15T06:13:10.496Z,6.65
2023-04-15T06:15:38.118Z,6.67
2023-04-15T06:18:06.205Z,6.68
2023-04-15T06:20:33.848Z,6.70
2023-04-15T06:23:01.494Z,6.70
2023-04-15T06:25:29.149Z,6.72
2023-04-15T06:27:56.797Z,6.72
2023-04-15T06:30:25.857Z,6.73
2023-04-15T06:32:53.638Z,6.76
2023-04-15T06:36:57.487Z,6.78
2023-04-15T06:39:32.117Z,6.79
2023-04-15T06:42:05.388Z,6.83
2023-04-15T06:44:33.977Z,6.81
2023-04-15T06:47:02.353Z,6.85
2023-04-15T06:49:30.393Z,6.87
2023-04-15T06:52:00.631Z,6.89
2023-04-15T06:54:28.485Z,6.89
2023-04-15T06:56:56.462Z,6.91
2023-04-15T06:59:24.415Z,6.93
2023-04-15T07:01:52.545Z,6.96
2023-04-15T07:04:20.519Z,6.97
2023-04-15T07:06:48.211Z,7.00
2023-04-15T07:09:17.241Z,7.03
2023-04-15T07:11:45.017Z,7.05
2023-04-15T07:14:12.852Z,7.07
2023-04-15T07:16:40.547Z,7.09
2023-04-15T07:19:08.328Z,7.10
2023-04-15T07:21:41.828Z,7.11
2023-04-15T07:24:11.255Z,7.14
2023-04-15T07:26:40.475Z,7.18
2023-04-15T07:29:13.902Z,7.19
2023-04-15T07:31:44.392Z,7.21
2023-04-15T07:34:12.088Z,7.24
2023-04-15T07:36:40.434Z,7.25
2023-04-15T07:39:08.063Z,7.27
2023-04-15T07:41:36.001Z,7.30
2023-04-15T07:44:05.472Z,7.33
2023-04-15T07:46:33.438Z,7.36
2023-04-15T07:49:02.360Z,7.39
2023-04-15T07:51:30.704Z,7.42
2023-04-15T07:53:58.789Z,7.46
2023-04-15T07:56:27.198Z,7.50
2023-04-15T07:58:54.947Z,7.53
2023-04-15T08:01:24.039Z,7.58
2023-04-15T08:03:52.537Z,7.62
2023-04-15T08:06:20.483Z,7.65
2023-04-15T08:08:48.322Z,7.70
2023-04-15T08:11:16.224Z,7.74
2023-04-15T08:13:44.107Z,7.80
2023-04-15T08:16:19.742Z,7.84
2023-04-15T08:18:49.874Z,7.91
2023-04-15T08:21:18.766Z,7.95
2023-04-15T08:23:48.403Z,7.99
2023-04-15T08:26:16.225Z,8.02
2023-04-15T08:28:45.622Z,8.06
2023-04-15T08:31:14.132Z,8.11
2023-04-15T08:33:42.003Z,8.13
2023-04-15T08:36:16.124Z,8.17
2023-04-15T08:38:45.913Z,8.20
2023-04-15T08:41:21.886Z,8.23
2023-04-15T08:43:55.017Z,8.27
2023-04-15T08:46:23.628Z,8.31
2023-04-15T08:48:53.395Z,8.33
2023-04-15T08:51:24.913Z,8.37
2023-04-15T08:53:53.525Z,8.39
2023-04-15T08:56:27.775Z,8.42
2023-04-15T08:58:55.939Z,8.48
2023-04-15T09:01:24.232Z,8.51
2023-04-15T09:03:55.549Z,8.54
2023-04-15T09:06:25.255Z,8.56
2023-04-15T09:08:53.400Z,8.61
2023-04-15T09:11:23.367Z,8.62
2023-04-15T09:13:51.640Z,8.68
2023-04-15T09:16:20.356Z,8.70
2023-04-15T09:18:48.184Z,8.71
2023-04-15T09:21:17.477Z,8.75
2023-04-15T09:23:59.808Z,8.78
2023-04-15T09:26:35.766Z,8.81
2023-04-15T09:29:08.004Z,8.85
2023-04-15T09:31:36.878Z,8.87
2023-04-15T09:34:04.796Z,8.89
2023-04-15T09:36:41.343Z,8.91
2023-04-15T09:39:10.433Z,8.94
2023-04-15T09:41:38.299Z,8.96
2023-04-15T09:44:06.045Z,9.00
2023-04-15T09:46:43.991Z,9.02
2023-04-15T09:49:12.913Z,9.05
2023-04-15T09:54:10.780Z,9.10
2023-04-15T09:56:42.165Z,9.13
2023-04-15T09:59:10.444Z,9.16
2023-04-15T10:01:41.007Z,9.21
2023-04-15T10:04:11.172Z,9.24
2023-04-15T10:06:41.246Z,9.26
2023-04-15T10:09:10.744Z,9.28
2023-04-15T10:11:38.671Z,9.31
2023-04-15T10:14:08.796Z,9.31
2023-04-15T10:16:42.680Z,9.34
2023-04-15T10:19:11.755Z,9.36
2023-04-15T10:21:40.471Z,9.40
2023-04-15T10:24:10.293Z,9.42
2023-04-15T10:26:38.394Z,9.44
2023-04-15T10:29:06.771Z,9.45
2023-04-15T10:31:35.982Z,9.48
2023-04-15T10:34:06.654Z,9.48
2023-04-15T10:36:34.904Z,9.51
2023-04-15T10:39:02.864Z,9.54
2023-04-15T10:41:34.608Z,9.58
2023-04-15T10:44:04.402Z,9.58
2023-04-15T10:46:40.451Z,9.59
2023-04-15T10:49:11.089Z,9.58
2023-04-15T10:51:41.759Z,9.59
2023-04-15T10:54:14.459Z,9.59
2023-04-15T10:56:44.865Z,9.61
2023-04-15T10:59:13.301Z,9.61
2023-04-15T11:01:56.720Z,9.62
2023-04-15T11:04:54.135Z,9.65
2023-04-15T11:07:35.673Z,9.68
2023-04-15T11:10:04.852Z,9.67
2023-04-15T11:12:39.720Z,9.68
2023-04-15T11:15:28.279Z,9.69
2023-04-15T11:17:56.880Z,9.70
2023-04-15T11:20:24.984Z,9.70
2023-04-15T11:23:13.998Z,9.71
2023-04-15T11:25:43.619Z,9.72
2023-04-15T11:28:14.333Z,9.74
2023-04-15T11:30:43.633Z,9.74
2023-04-15T11:33:13.820Z,9.75
2023-04-15T11:35:42.712Z,9.77
2023-04-15T11:38:12.192Z,9.77
2023-04-15T11:40:41.805Z,9.78
2023-04-15T11:43:14.379Z,9.78
2023-04-15T11:45:51.512Z,9.75
2023-04-15T11:48:20.145Z,9.73
2023-04-15T11:50:48.190Z,9.72
2023-04-15T11:53:15.977Z,9.73
2023-04-15T11:55:45.502Z,9.73
2023-04-15T11:58:16.910Z,9.74
2023-04-15T12:00:48.998Z,9.74
2023-04-15T12:03:24.264Z,9.75
2023-04-15T12:06:06.151Z,9.76
2023-04-15T12:09:00.228Z,9.75
2023-04-15T12:11:42.347Z,9.74
2023-04-15T12:14:21.138Z,9.74
2023-04-15T12:16:50.343Z,9.73
2023-04-15T12:19:25.302Z,9.74
2023-04-15T12:22:00.031Z,9.73
2023-04-15T12:24:28.567Z,9.71
2023-04-15T12:26:58.289Z,9.72
2023-04-15T12:29:33.118Z,9.71
2023-04-15T12:32:07.245Z,9.70
2023-04-15T12:34:36.858Z,9.70
2023-04-15T12:37:06.797Z,9.69
2023-04-15T12:39:37.061Z,9.69
2023-04-15T12:42:06.198Z,9.69
2023-04-15T12:44:36.517Z,9.67
2023-04-15T12:47:04.477Z,9.68
2023-04-15T12:49:32.970Z,9.68
2023-04-15T12:52:02.475Z,9.67
2023-04-15T12:54:31.017Z,9.69
2023-04-15T12:56:59.565Z,9.69
2023-04-15T12:59:27.470Z,9.70
2023-04-15T13:02:00.869Z,9.72
2023-04-15T13:04:30.755Z,9.72
2023-04-15T13:06:58.976Z,9.72
2023-04-15T13:09:27.126Z,9.73
2023-04-15T13:11:55.342Z,9.74
2023-04-15T13:14:23.356Z,9.73
2023-04-15T13:16:52.012Z,9.73
2023-04-15T13:19:21.340Z,9.72
2023-04-15T13:21:49.322Z,9.72
2023-04-15T13:24:17.803Z,9.71
2023-04-15T13:26:45.523Z,9.70
2023-04-15T13:29:14.182Z,9.70
2023-04-15T13:31:42.016Z,9.70
2023-04-15T13:34:09.794Z,9.70
2023-04-15T13:36:39.025Z,9.71
2023-04-15T13:39:06.858Z,9.70
2023-04-15T13:41:34.640Z,9.70
2023-04-15T13:44:02.942Z,9.69
2023-04-15T13:46:31.001Z,9.69
2023-04-15T13:48:58.889Z,9.69
2023-04-15T13:51:27.066Z,9.69
2023-04-15T13:53:56.795Z,9.70
2023-04-15T13:56:25.031Z,9.70
2023-04-15T13:58:55.090Z,9.71
2023-04-15T14:01:23.266Z,9.71
2023-04-15T14:03:51.324Z,9.74
2023-04-15T14:06:19.348Z,9.74
2023-04-15T14:08:47.139Z,9.76
2023-04-15T14:11:16.282Z,9.79
2023-04-15T14:13:44.122Z,9.82
2023-04-15T14:16:11.923Z,9.85
2023-04-15T14:18:39.831Z,9.88
2023-04-15T14:21:07.852Z,9.90
2023-04-15T14:23:35.686Z,9.93
2023-04-15T14:26:03.694Z,9.95
2023-04-15T14:28:33.229Z,9.98
2023-04-15T14:31:01.217Z,10.00
2023-04-15T14:33:29.006Z,10.02
2023-04-15T14:35:57.106Z,10.04
2023-04-15T14:38:24.826Z,10.07
2023-04-15T14:40:52.583Z,10.09
2023-04-15T14:43:20.325Z,10.12
2023-04-15T14:45:49.457Z,10.15
2023-04-15T14:48:17.673Z,10.18
2023-04-15T14:50:45.610Z,10.20
2023-04-15T14:53:13.464Z,10.23
2023-04-15T14:55:42.123Z,10.23
2023-04-15T14:58:09.899Z,10.24
2023-04-15T15:00:40.397Z,10.24
2023-04-15T15:03:12.980Z,10.26
2023-04-15T15:05:41.506Z,10.25
2023-04-15T15:08:10.657Z,10.28
2023-04-15T15:10:48.205Z,10.26
2023-04-15T15:13:18.015Z,10.27
2023-04-15T15:15:46.071Z,10.26
2023-04-15T15:18:16.187Z,10.24
2023-04-15T15:20:43.947Z,10.23
2023-04-15T15:23:11.771Z,10.21
2023-04-15T15:25:39.727Z,10.21
2023-04-15T15:28:09.734Z,10.19
2023-04-15T15:30:40.066Z,10.20
2023-04-15T15:33:07.981Z,10.18
2023-04-15T15:35:37.355Z,10.18
2023-04-15T15:38:05.399Z,10.15
2023-04-15T15:40:33.159Z,10.13
2023-04-15T15:43:00.995Z,10.14
2023-04-15T15:45:29.010Z,10.14
2023-04-15T15:47:58.896Z,10.13
2023-04-15T15:50:27.249Z,10.12
2023-04-15T15:52:56.508Z,10.10
2023-04-15T15:55:25.979Z,10.07
2023-04-15T15:57:54.440Z,10.05
2023-04-15T16:00:23.249Z,10.04
2023-04-15T16:03:06.228Z,10.03
2023-04-15T16:05:35.116Z,10.01
2023-04-15T16:08:04.391Z,9.98
2023-04-15T16:10:32.655Z,9.98
2023-04-15T16:13:00.850Z,9.94
2023-04-15T16:15:29.329Z,9.93
2023-04-15T16:17:57.518Z,9.92
2023-04-15T16:20:26.815Z,9.89
2023-04-15T16:22:54.798Z,9.89
2023-04-15T16:25:24.209Z,9.87
2023-04-15T16:28:03.068Z,9.86
2023-04-15T16:30:37.514Z,9.84
2023-04-15T16:33:09.214Z,9.83
2023-04-15T16:35:37.308Z,9.82
2023-04-15T16:38:05.190Z,9.81
2023-04-15T16:40:35.885Z,9.80
2023-04-15T16:43:04.165Z,9.78
2023-04-15T16:45:31.976Z,9.79
2023-04-15T16:47:59.754Z,9.78
2023-04-15T16:50:27.478Z,9.76
2023-04-15T16:52:55.741Z,9.77
2023-04-15T16:55:26.507Z,9.74
2023-04-15T16:58:03.277Z,9.73
2023-04-15T17:00:32.880Z,9.73
2023-04-15T17:03:01.542Z,9.73
2023-04-15T17:05:30.663Z,9.70
2023-04-15T17:07:58.646Z,9.70
2023-04-15T17:10:26.662Z,9.68
2023-04-15T17:12:57.068Z,9.68
2023-04-15T17:15:25.301Z,9.67
2023-04-15T17:17:53.766Z,9.67
2023-04-15T17:20:21.800Z,9.66
2023-04-15T17:22:49.973Z,9.65
2023-04-15T17:25:18.002Z,9.64
2023-04-15T17:27:45.640Z,9.63
2023-04-15T17:30:14.949Z,9.63
2023-04-15T17:32:42.752Z,9.60
2023-04-15T17:35:11.197Z,9.59
2023-04-15T17:37:39.225Z,9.59
2023-04-15T17:40:09.014Z,9.58
2023-04-15T17:42:36.852Z,9.55
2023-04-15T17:45:04.996Z,9.54
2023-04-15T17:47:34.142Z,9.53
2023-04-15T17:50:01.963Z,9.51
2023-04-15T17:52:29.653Z,9.49
2023-04-15T17:54:57.343Z,9.48
2023-04-15T17:57:25.322Z,9.46
2023-04-15T17:59:53.129Z,9.44
2023-04-15T18:02:21.112Z,9.43
2023-04-15T18:04:50.476Z,9.40
2023-04-15T18:07:18.283Z,9.39
2023-04-15T18:09:46.230Z,9.36
2023-04-15T18:12:13.918Z,9.34
2023-04-15T18:14:41.589Z,9.33
2023-04-15T18:17:09.481Z,9.32
2023-04-15T18:19:37.197Z,9.30
2023-04-15T18:22:06.241Z,9.29
2023-04-15T18:24:34.045Z,9.27
2023-04-15T18:27:01.907Z,9.26
2023-04-15T18:29:31.179Z,9.24
2023-04-15T18:32:00.167Z,9.23
2023-04-15T18:34:28.022Z,9.21
2023-04-15T18:36:56.856Z,9.19
2023-04-15T18:39:26.868Z,9.19
2023-04-15T18:41:54.831Z,9.18
2023-04-15T18:44:22.625Z,9.16
2023-04-15T18:46:50.536Z,9.16
2023-04-15T18:49:18.564Z,9.15
2023-04-15T18:51:46.425Z,9.14
2023-04-15T18:54:14.139Z,9.14
2023-04-15T18:56:43.193Z,9.13
2023-04-15T18:59:28.739Z,9.12
2023-04-15T19:01:57.654Z,9.11
2023-04-15T19:04:25.443Z,9.11
2023-04-15T19:06:53.169Z,9.11
2023-04-15T19:09:20.950Z,9.10
2023-04-15T19:11:49.932Z,9.09
2023-04-15T19:14:18.262Z,9.10
2023-04-15T19:16:46.010Z,9.09
2023-04-15T19:19:14.613Z,9.07
2023-04-15T19:21:42.607Z,9.08
2023-04-15T19:24:11.095Z,9.08
2023-04-15T19:26:38.813Z,9.06
2023-04-15T19:29:08.015Z,9.06
2023-04-15T19:31:35.729Z,9.06
2023-04-15T19:34:03.424Z,9.05
2023-04-15T19:36:32.338Z,9.06
2023-04-15T19:39:00.426Z,9.05
2023-04-15T19:41:28.211Z,9.05
2023-04-15T19:43:56.015Z,9.05
2023-04-15T19:46:25.123Z,9.04
2023-04-15T19:48:53.206Z,9.04
2023-04-15T19:51:20.866Z,9.03
2023-04-15T19:53:49.559Z,9.02
2023-04-15T19:56:17.707Z,9.03
2023-04-15T19:58:46.970Z,9.02
2023-04-15T20:01:14.860Z,9.02
2023-04-15T20:03:44.078Z,9.01
2023-04-15T20:06:12.337Z,9.00
2023-04-15T20:08:39.977Z,9.00
2023-04-15T20:11:07.824Z,8.99
2023-04-15T20:13:35.591Z,8.98
2023-04-15T20:16:03.565Z,8.98
2023-04-15T20:18:31.334Z,8.98
2023-04-15T20:21:00.730Z,8.98
2023-04-15T20:23:28.464Z,8.97
2023-04-15T20:25:56.649Z,8.95
2023-04-15T20:28:27.399Z,8.95
2023-04-15T20:30:55.314Z,8.95
2023-04-15T20:33:24.795Z,8.94
2023-04-15T20:35:52.608Z,8.94
2023-04-15T20:38:21.904Z,8.94
2023-04-15T20:40:50.697Z,8.94
2023-04-15T20:43:21.481Z,8.93
2023-04-15T20:45:50.650Z,8.91
2023-04-15T20:48:19.217Z,8.92
2023-04-15T20:50:46.921Z,8.91
2023-04-15T20:53:14.746Z,8.91
2023-04-15T20:55:44.557Z,8.91
2023-04-15T20:58:12.423Z,8.91
2023-04-15T21:00:40.163Z,8.90
2023-04-15T21:03:08.015Z,8.91
2023-04-15T21:05:35.851Z,8.90
2023-04-15T21:08:03.689Z,8.91
2023-04-15T21:10:35.123Z,8.90
2023-04-15T21:13:04.268Z,8.91
2023-04-15T21:15:31.999Z,8.89
2023-04-15T21:17:59.849Z,8.90
2023-04-15T21:20:28.030Z,8.89
2023-04-15T21:22:55.817Z,8.90
2023-04-15T21:25:23.679Z,8.89
2023-04-15T21:27:51.395Z,8.90
2023-04-15T21:30:20.733Z,8.90
2023-04-15T21:32:48.705Z,8.89
2023-04-15T21:35:16.761Z,8.90
2023-04-15T21:37:44.526Z,8.90
2023-04-15T21:40:13.390Z,8.90
2023-04-15T21:42:41.783Z,8.89
2023-04-15T21:45:10.236Z,8.89
2023-04-15T21:48:05.454Z,8.90
2023-04-15T21:50:27.409Z,8.90
2023-04-15T21:52:55.442Z,8.89
2023-04-15T21:55:23.298Z,8.90
2023-04-15T21:57:50.975Z,8.91
2023-04-15T22:00:18.886Z,8.90
2023-04-15T22:02:48.157Z,8.90
2023-04-15T22:05:15.847Z,8.90
2023-04-15T22:07:43.928Z,8.89
2023-04-15T22:10:12.087Z,8.89
2023-04-15T22:12:41.704Z,8.89
2023-04-15T22:15:10.388Z,8.89
2023-04-15T22:17:38.295Z,8.89
2023-04-15T22:20:09.125Z,8.88
2023-04-15T22:22:43.608Z,8.89
2023-04-15T22:25:12.658Z,8.87
2023-04-15T22:27:40.416Z,8.88
2023-04-15T22:30:09.367Z,8.88
2023-04-15T22:32:37.353Z,8.87
2023-04-15T22:35:07.212Z,8.86
2023-04-15T22:37:34.989Z,8.86
2023-04-15T22:40:03.126Z,8.85
2023-04-15T22:42:30.844Z,8.86
2023-04-15T22:44:58.491Z,8.86
2023-04-15T22:47:26.382Z,8.85
2023-04-15T22:49:54.152Z,8.85
2023-04-15T22:52:30.008Z,8.85
2023-04-15T22:54:58.504Z,8.85
2023-04-15T22:57:27.876Z,8.83
2023-04-15T22:59:56.091Z,8.83
2023-04-15T23:02:24.062Z,8.80
2023-04-15T23:04:51.989Z,8.82
2023-04-15T23:07:19.707Z,8.80
2023-04-15T23:09:50.051Z,8.80
2023-04-15T23:12:17.788Z,8.78
2023-04-15T23:14:45.498Z,8.78
2023-04-15T23:17:13.112Z,8.77
2023-04-15T23:19:40.771Z,8.78
2023-04-15T23:22:10.621Z,8.77
2023-04-15T23:24:38.610Z,8.76
2023-04-15T23:27:07.634Z,8.77
2023-04-15T23:29:35.292Z,8.74
2023-04-15T23:32:03.099Z,8.75
2023-04-15T23:34:30.809Z,8.74
2023-04-15T23:36:58.568Z,8.74
2023-04-15T23:39:26.518Z,8.73
2023-04-15T23:41:54.661Z,8.73
2023-04-15T23:44:23.808Z,8.73
2023-04-15T23:46:51.504Z,8.72
2023-04-15T23:49:20.522Z,8.69
2023-04-15T23:51:50.108Z,8.72
2023-04-15T23:54:18.415Z,8.71
2023-04-15T23:56:46.177Z,8.69
2023-04-15T23:59:13.949Z,8.69
